^^
Grace C. Lehan Memorial Weather Station Historical Data
Daily Summary for February 7, 2021 Units:  English    Metric   Both
Daily Weekly Monthly Yearly
  High: Low: Average:
Temperature: 31.4 °F 24.8 °F 29 °F
Dew Point: 29.3 °F 14.6 °F 22 °F
Humidity: 93% 52% 76%
Wind Speed: 9.4mph 0mph 1.3mph
Wind Gust: 18mph - -
Wind- - WNW
Pressure: 30.12 in 29.79 in -
Precipitation: 0.00 in    
 
 
Tabular Data for February 7, 2021
Time Temperature Dew Point Pressure Wind Wind Speed Wind Gust Humidity Rainfall Rate (Hourly) solar
00:04 30.7 °F 15.9 °F 30.12 in Calm   1 mph 53.6% 0.00 in 0 W/m2
00:09 30.5 °F 16.4 °F 30.12 in Calm     55.2% 0.00 in 0 W/m2
00:14 30.3 °F 16.4 °F 30.12 in Calm     55.8% 0.00 in 0 W/m2
00:19 30 °F 16.2 °F 30.12 in Calm     56% 0.00 in 0 W/m2
00:24 29.8 °F 16 °F 30.12 in Calm     55.9% 0.00 in 0 W/m2
00:29 29.8 °F 15 °F 30.12 in Calm     53.6% 0.00 in 0 W/m2
00:34 30 °F 15.2 °F 30.11 in Calm     53.6% 0.00 in 0 W/m2
00:39 30.1 °F 14.6 °F 30.11 in Calm     52% 0.00 in 0 W/m2
00:44 30.1 °F 15.7 °F 30.11 in Calm     54.4% 0.00 in 0 W/m2
00:49 30.1 °F 16.6 °F 30.10 in Calm     56.7% 0.00 in 0 W/m2
00:54 30 °F 17.3 °F 30.10 in Calm     58.6% 0.00 in 0 W/m2
00:59 30 °F 17.1 °F 30.10 in Calm     58.3% 0.00 in 0 W/m2
01:04 29.9 °F 16.8 °F 30.10 in Calm     57.7% 0.00 in 0 W/m2
01:09 29.9 °F 16.5 °F 30.10 in Calm     57% 0.00 in 0 W/m2
01:14 29.9 °F 16.8 °F 30.11 in Calm     57.8% 0.00 in 0 W/m2
01:19 29.8 °F 17 °F 30.11 in Calm     58.4% 0.00 in 0 W/m2
01:24 29.8 °F 17.1 °F 30.11 in Calm     58.6% 0.00 in 0 W/m2
01:29 29.8 °F 16.8 °F 30.11 in Calm     58% 0.00 in 0 W/m2
01:34 29.8 °F 16.8 °F 30.11 in Calm     58% 0.00 in 0 W/m2
01:39 29.8 °F 16.4 °F 30.12 in Calm     57% 0.00 in 0 W/m2
01:44 29.9 °F 15.7 °F 30.12 in Calm     55% 0.00 in 0 W/m2
01:49 30.1 °F 16.1 °F 30.12 in Calm     55.5% 0.00 in 0 W/m2
01:54 30.1 °F 16.3 °F 30.11 in Calm     56% 0.00 in 0 W/m2
01:59 30.1 °F 17.2 °F 30.11 in Calm     58.2% 0.00 in 0 W/m2
02:04 30 °F 17.2 °F 30.12 in Calm     58.5% 0.00 in 0 W/m2
02:09 29.8 °F 17.3 °F 30.11 in Calm     59% 0.00 in 0 W/m2
02:14 29.7 °F 17.1 °F 30.11 in Calm     59% 0.00 in 0 W/m2
02:19 29.5 °F 17 °F 30.11 in Calm     59.1% 0.00 in 0 W/m2
02:24 29.4 °F 17.5 °F 30.11 in Calm     60.7% 0.00 in 0 W/m2
02:29 29.3 °F 18.2 °F 30.11 in Calm     62.7% 0.00 in 0 W/m2
02:34 29.1 °F 18.3 °F 30.11 in Calm   1 mph 63.3% 0.00 in 0 W/m2
02:39 28.9 °F 18.3 °F 30.11 in Calm   1 mph 64% 0.00 in 0 W/m2
02:44 28.8 °F 17.9 °F 30.11 in Calm   1 mph 63.5% 0.00 in 0 W/m2
02:49 28.6 °F 17.7 °F 30.10 in WSW 0.1 mph 2 mph 63% 0.00 in 0 W/m2
02:54 28.5 °F 17.6 °F 30.11 in Calm   2 mph 63% 0.00 in 0 W/m2
02:59 28.5 °F 17.4 °F 30.11 in Calm   2 mph 62.8% 0.00 in 0 W/m2
03:04 28.5 °F 17 °F 30.11 in Calm   2 mph 61.6% 0.00 in 0 W/m2
03:09 28.5 °F 16.7 °F 30.12 in Calm     61% 0.00 in 0 W/m2
03:14 28.4 °F 16.7 °F 30.12 in Calm     61% 0.00 in 0 W/m2
03:19 28.4 °F 16.2 °F 30.11 in Calm     59.8% 0.00 in 0 W/m2
03:24 28.4 °F 16 °F 30.11 in Calm     59.2% 0.00 in 0 W/m2
03:29 28.5 °F 16.4 °F 30.11 in Calm     60% 0.00 in 0 W/m2
03:34 28.5 °F 16.4 °F 30.11 in Calm     60% 0.00 in 0 W/m2
03:39 28.5 °F 16.4 °F 30.11 in Calm     60% 0.00 in 0 W/m2
03:44 28.5 °F 16.7 °F 30.11 in Calm     60.8% 0.00 in 0 W/m2
03:49 28.5 °F 16.8 °F 30.11 in Calm     61% 0.00 in 0 W/m2
03:54 28.5 °F 16.5 °F 30.12 in Calm     60.3% 0.00 in 0 W/m2
03:59 28.5 °F 16.8 °F 30.12 in Calm     61% 0.00 in 0 W/m2
04:00 28.5 °F 16.8 °F 30.11 in Calm     61% 0.00 in 0 W/m2
04:09 28.4 °F 17.2 °F 30.11 in Calm     62.4% 0.00 in 0 W/m2
04:14 28.3 °F 17.4 °F 30.11 in Calm     63% 0.00 in 0 W/m2
04:19 28.3 °F 17.3 °F 30.11 in Calm     63% 0.00 in 0 W/m2
04:24 28.2 °F 17.2 °F 30.11 in Calm     62.8% 0.00 in 0 W/m2
04:29 28.1 °F 16.9 °F 30.11 in Calm     62.4% 0.00 in 0 W/m2
04:34 28.1 °F 17.4 °F 30.10 in Calm     63.6% 0.00 in 0 W/m2
04:39 28.1 °F 17.5 °F 30.10 in Calm     64% 0.00 in 0 W/m2
04:44 28 °F 17.6 °F 30.10 in Calm     64.4% 0.00 in 0 W/m2
04:49 27.9 °F 17.7 °F 30.10 in Calm     65% 0.00 in 0 W/m2
04:54 27.9 °F 17.6 °F 30.10 in Calm     65% 0.00 in 0 W/m2
04:59 27.8 °F 17.6 °F 30.10 in Calm     65.2% 0.00 in 0 W/m2
05:04 27.6 °F 17.2 °F 30.09 in Calm     64.3% 0.00 in 0 W/m2
05:09 27.6 °F 17.1 °F 30.09 in Calm     64.1% 0.00 in 0 W/m2
05:14 27.6 °F 17 °F 30.09 in Calm   1 mph 64% 0.00 in 0 W/m2
05:19 27.5 °F 16.9 °F 30.09 in WSW 0.3 mph 2 mph 64% 0.00 in 0 W/m2
05:24 27.5 °F 16.9 °F 30.09 in WSW 0.3 mph 2 mph 64% 0.00 in 0 W/m2
05:29 27.5 °F 16.9 °F 30.10 in WSW 0.1 mph 2 mph 64% 0.00 in 0 W/m2
05:34 27.5 °F 16.9 °F 30.10 in Calm   2 mph 64% 0.00 in 0 W/m2
05:39 27.6 °F 17 °F 30.10 in Calm   1 mph 64% 0.00 in 0 W/m2
05:44 27.6 °F 17 °F 30.09 in West 0.2 mph 2 mph 64% 0.00 in 0 W/m2
05:49 27.6 °F 17 °F 30.09 in West 0.2 mph 2 mph 64% 0.00 in 0 W/m2
05:54 27.6 °F 17 °F 30.09 in West 0.4 mph 2 mph 63.9% 0.00 in 0 W/m2
05:59 27.7 °F 16.8 °F 30.10 in Calm   2 mph 63% 0.00 in 0 W/m2
06:04 27.7 °F 16.6 °F 30.10 in Calm   2 mph 62.6% 0.00 in 0 W/m2
06:09 27.7 °F 16.6 °F 30.10 in West 0.1 mph 2 mph 62.7% 0.00 in 0 W/m2
06:14 27.7 °F 16.8 °F 30.10 in Calm   2 mph 63% 0.00 in 0 W/m2
06:19 27.8 °F 16.8 °F 30.10 in Calm   2 mph 63% 0.00 in 0 W/m2
06:24 27.8 °F 16.9 °F 30.09 in Calm   2 mph 63% 0.00 in 0 W/m2
06:29 27.8 °F 16.8 °F 30.09 in Calm   2 mph 63% 0.00 in 0 W/m2
06:34 27.8 °F 16.9 °F 30.08 in Calm   2 mph 63% 0.00 in 0 W/m2
06:39 27.8 °F 16.9 °F 30.08 in Calm     63% 0.00 in 0 W/m2
06:44 27.9 °F 16.9 °F 30.09 in Calm     63% 0.00 in 0 W/m2
06:49 27.9 °F 17 °F 30.09 in Calm     63% 0.00 in 0 W/m2
06:54 27.9 °F 16.9 °F 30.09 in Calm     62.9% 0.00 in 0 W/m2
06:59 28 °F 16.7 °F 30.09 in Calm   1 mph 62% 0.00 in 0 W/m2
07:04 28 °F 16.7 °F 30.09 in Calm   1 mph 62% 0.00 in 0 W/m2
07:09 28 °F 16.7 °F 30.09 in West 0.1 mph 1 mph 61.9% 0.00 in 5 W/m2
07:14 28.1 °F 16.7 °F 30.09 in Calm   1 mph 61.9% 0.00 in 5 W/m2
07:19 28.1 °F 16.8 °F 30.09 in Calm   1 mph 62% 0.00 in 7 W/m2
07:24 28.1 °F 17.1 °F 30.09 in Calm   1 mph 63% 0.00 in 11 W/m2
07:29 28.2 °F 16.9 °F 30.08 in West 0.3 mph 2 mph 62.2% 0.00 in 16 W/m2
07:34 28.2 °F 16.9 °F 30.08 in West 0.4 mph 3 mph 62% 0.00 in 16 W/m2
07:39 28.3 °F 16.9 °F 30.07 in West 0.2 mph 3 mph 62% 0.00 in 9 W/m2
07:44 28.3 °F 16.8 °F 30.07 in NNW 1 mph 4 mph 61.5% 0.00 in 18 W/m2
07:49 28.4 °F 17 °F 30.07 in North 0.2 mph 4 mph 62% 0.00 in 40 W/m2
07:54 28.4 °F 17.2 °F 30.06 in North 0.5 mph 4 mph 62.3% 0.00 in 42 W/m2
07:59 28.5 °F 16.8 °F 30.05 in NNE 0.5 mph 4 mph 61% 0.00 in 37 W/m2
08:00 28.5 °F 16.8 °F 30.05 in Calm   4 mph 61% 0.00 in 35 W/m2
08:09 28.5 °F 16.9 °F 30.05 in NNE 0.4 mph 5 mph 61.3% 0.00 in 37 W/m2
08:14 28.6 °F 17.2 °F 30.04 in NNE 0.5 mph 5 mph 61.8% 0.00 in 28 W/m2
08:19 28.6 °F 16.6 °F 30.03 in NE 0.4 mph 5 mph 60.3% 0.00 in 32 W/m2
08:24 28.6 °F 16.9 °F 30.03 in NNE 0.6 mph 5 mph 61% 0.00 in 32 W/m2
08:29 28.6 °F 17.2 °F 30.02 in NNE 0.4 mph 5 mph 61.8% 0.00 in 30 W/m2
08:34 28.7 °F 17.3 °F 30.02 in NNE 0.6 mph 5 mph 62% 0.00 in 39 W/m2
08:39 28.7 °F 17.4 °F 30.02 in NNE 0.3 mph 2 mph 62% 0.00 in 44 W/m2
08:44 28.8 °F 17.5 °F 30.02 in NNE 0.4 mph 3 mph 62% 0.00 in 42 W/m2
08:49 28.9 °F 17.6 °F 30.02 in NNE 0.1 mph 3 mph 62.2% 0.00 in 40 W/m2
08:54 29 °F 17.5 °F 30.02 in North 1 mph 7 mph 61.7% 0.00 in 37 W/m2
08:59 29.1 °F 17.7 °F 30.02 in NNW 1.3 mph 9 mph 62% 0.00 in 35 W/m2
09:04 29.1 °F 17.3 °F 30.02 in NNW 1.8 mph 9 mph 61% 0.00 in 37 W/m2
09:09 29.1 °F 17.1 °F 30.03 in NNW 0.5 mph 7 mph 60.4% 0.00 in 39 W/m2
09:14 29.2 °F 17.4 °F 30.02 in NNW 0.9 mph 7 mph 61% 0.00 in 44 W/m2
09:19 29.3 °F 17.5 °F 30.02 in NNW 0.5 mph 7 mph 61% 0.00 in 56 W/m2
09:21 29.4 °F 17.6 °F 30.02 in NNW 1.6 mph 7 mph 61% 0.00 in 56 W/m2
09:30 29.6 °F 17.4 °F 30.02 in NNW 1 mph 7 mph 60% 0.00 in 44 W/m2
10:00 30.6 °F 18.4 °F 30.02 in Calm   5 mph 60% 0.00 in 43 W/m2
10:49 31.1 °F 22.3 °F 30.02 in Calm   5 mph 69.6% 0.00 in 43 W/m2
10:54 31.2 °F 23.2 °F 30.01 in ENE 0.3 mph 2 mph 72% 0.00 in 40 W/m2
10:59 31 °F 23.3 °F 30.01 in ENE 0.1 mph 2 mph 72.9% 0.00 in 33 W/m2
11:04 30.8 °F 23.6 °F 30.01 in ENE 0.1 mph 2 mph 74.4% 0.00 in 35 W/m2
11:09 30.5 °F 24 °F 30.01 in ENE 0.4 mph 3 mph 76.6% 0.00 in 26 W/m2
11:14 30.2 °F 24.4 °F 30.00 in ENE 0.4 mph 3 mph 78.5% 0.00 in 28 W/m2
11:19 30 °F 24.6 °F 30.00 in ENE 0.2 mph 3 mph 80.2% 0.00 in 30 W/m2
11:24 29.7 °F 24.8 °F 30.00 in ENE 0.5 mph 3 mph 81.5% 0.00 in 33 W/m2
11:29 29.6 °F 24.9 °F 29.98 in NE 0.5 mph 3 mph 82.6% 0.00 in 35 W/m2
11:34 29.4 °F 25 °F 29.98 in NNE 1.1 mph 4 mph 83.3% 0.00 in 33 W/m2
11:39 29.3 °F 25.1 °F 29.96 in North 1.2 mph 4 mph 84% 0.00 in 30 W/m2
11:44 29.1 °F 24.9 °F 29.96 in NNW 1.3 mph 6 mph 84% 0.00 in 23 W/m2
11:49 28.8 °F 24.8 °F 29.95 in North 1.7 mph 6 mph 85% 0.00 in 26 W/m2
11:54 28.5 °F 24.7 °F 29.94 in North 1 mph 6 mph 85.2% 0.00 in 28 W/m2
11:58 28.4 °F 24.8 °F 29.94 in North 1.3 mph 6 mph 86% 0.00 in 32 W/m2
12:04 28.4 °F 25 °F 29.93 in North 1.6 mph 5 mph 87% 0.00 in 30 W/m2
12:09 28.3 °F 24.9 °F 29.93 in North 1.8 mph 7 mph 87% 0.00 in 28 W/m2
12:14 28.3 °F 24.9 °F 29.92 in NNW 1.6 mph 7 mph 87% 0.00 in 25 W/m2
12:19 28.2 °F 25 °F 29.91 in NNW 1.6 mph 7 mph 87.6% 0.00 in 23 W/m2
12:24 28.2 °F 25.1 °F 29.91 in NNW 0.7 mph 7 mph 88% 0.00 in 21 W/m2
12:29 28.1 °F 25 °F 29.91 in NNW 1.2 mph 7 mph 88% 0.00 in 19 W/m2
12:34 28.1 °F 25 °F 29.91 in NNW 1.8 mph 7 mph 88% 0.00 in 18 W/m2
12:39 28.1 °F 25 °F 29.90 in NNW 2.1 mph 6 mph 88% 0.00 in 12 W/m2
12:44 28 °F 24.9 °F 29.91 in North 1.9 mph 7 mph 88% 0.00 in 9 W/m2
12:49 28 °F 24.9 °F 29.90 in NNW 0.6 mph 7 mph 88% 0.00 in 9 W/m2
12:54 28 °F 25.1 °F 29.89 in NNW 0.4 mph 7 mph 88.7% 0.00 in 9 W/m2
12:59 28 °F 25.2 °F 29.88 in NNW 1.1 mph 7 mph 89% 0.00 in 7 W/m2
13:04 28.1 °F 25.3 °F 29.88 in NNW 0.7 mph 7 mph 89% 0.00 in 5 W/m2
13:09 28.1 °F 25.3 °F 29.87 in NNW 0.3 mph 3 mph 89% 0.00 in 5 W/m2
13:14 28.1 °F 25.3 °F 29.86 in NNW 0.3 mph 4 mph 89.1% 0.00 in 5 W/m2
13:19 28.1 °F 25.6 °F 29.85 in Calm   4 mph 90% 0.00 in 5 W/m2
13:24 28.1 °F 25.6 °F 29.85 in North 1.8 mph 6 mph 90% 0.00 in 5 W/m2
13:29 28.1 °F 25.6 °F 29.85 in North 1.7 mph 10 mph 90% 0.00 in 7 W/m2
13:34 28.1 °F 25.6 °F 29.85 in NNW 1.4 mph 10 mph 90% 0.00 in 7 W/m2
13:39 28.1 °F 25.6 °F 29.85 in NNW 2.1 mph 6 mph 90% 0.00 in 5 W/m2
13:44 28.1 °F 25.6 °F 29.84 in NNW 2.8 mph 6 mph 90% 0.00 in 7 W/m2
13:49 28.1 °F 25.6 °F 29.84 in NNW 1.6 mph 6 mph 90.3% 0.00 in 7 W/m2
13:54 28.1 °F 25.8 °F 29.84 in NNW 2.6 mph 6 mph 90.8% 0.00 in 7 W/m2
13:59 28.2 °F 25.9 °F 29.84 in NNW 2 mph 7 mph 91% 0.00 in 7 W/m2
14:04 28.2 °F 25.9 °F 29.84 in NNW 1.4 mph 7 mph 91% 0.00 in 7 W/m2
14:09 28.3 °F 26 °F 29.84 in NNW 1.2 mph 6 mph 91% 0.00 in 5 W/m2
14:14 28.4 °F 26.2 °F 29.83 in North 2.4 mph 7 mph 91.2% 0.00 in 5 W/m2
14:19 28.5 °F 26.4 °F 29.82 in NNW 1.6 mph 7 mph 91.7% 0.00 in 5 W/m2
14:24 28.5 °F 26.5 °F 29.82 in NNW 1.2 mph 7 mph 92% 0.00 in 5 W/m2
14:29 28.7 °F 26.6 °F 29.82 in NW 2.1 mph 7 mph 92% 0.00 in 5 W/m2
14:34 28.8 °F 26.7 °F 29.82 in NNW 1.5 mph 7 mph 92% 0.00 in 5 W/m2
14:39 28.8 °F 26.8 °F 29.83 in NW 1.5 mph 9 mph 92% 0.00 in 5 W/m2
14:44 28.9 °F 26.9 °F 29.83 in NNW 1.7 mph 9 mph 92% 0.00 in 5 W/m2
14:49 29 °F 27 °F 29.82 in NNW 1.4 mph 10 mph 92% 0.00 in 5 W/m2
14:54 29.1 °F 27.1 °F 29.82 in NNW 1 mph 10 mph 92% 0.00 in 5 W/m2
14:59 29.2 °F 27.2 °F 29.81 in NNW 2 mph 10 mph 92% 0.00 in 5 W/m2
15:04 29.3 °F 27.3 °F 29.81 in NNW 0.9 mph 10 mph 92% 0.00 in 5 W/m2
15:09 29.4 °F 27.3 °F 29.81 in North 0.4 mph 5 mph 92% 0.00 in 5 W/m2
15:14 29.4 °F 27.4 °F 29.82 in NNW 1.5 mph 9 mph 92.1% 0.00 in 5 W/m2
15:19 29.5 °F 27.7 °F 29.82 in NNW 1.4 mph 9 mph 93% 0.00 in 5 W/m2
15:24 29.6 °F 27.8 °F 29.82 in NNW 2.2 mph 9 mph 93% 0.00 in 5 W/m2
15:29 29.6 °F 27.8 °F 29.81 in North 1.6 mph 9 mph 93% 0.00 in 0 W/m2
15:34 29.6 °F 27.9 °F 29.80 in NNW 1.8 mph 9 mph 93% 0.00 in 0 W/m2
15:39 29.7 °F 27.9 °F 29.80 in NW 1.9 mph 10 mph 93% 0.00 in 0 W/m2
15:44 29.7 °F 27.9 °F 29.80 in NNW 2.2 mph 10 mph 93% 0.00 in 0 W/m2
15:49 29.7 °F 27.9 °F 29.80 in NNW 2.4 mph 10 mph 93% 0.00 in 5 W/m2
15:54 29.7 °F 27.9 °F 29.80 in North 1.1 mph 10 mph 93% 0.00 in 5 W/m2
15:59 29.7 °F 28 °F 29.80 in NNW 1 mph 10 mph 93% 0.00 in 5 W/m2
16:04 29.8 °F 28 °F 29.79 in North 3.2 mph 4 mph 93% 0.00 in 0 W/m2
16:09 29.8 °F 28 °F 29.79 in NNW 0.7 mph 4 mph 93% 0.00 in 0 W/m2
16:14 29.9 °F 28.1 °F 29.79 in NNW 2.4 mph 9 mph 93% 0.00 in 0 W/m2
16:19 29.9 °F 28.1 °F 29.79 in North 1.2 mph 9 mph 93% 0.00 in 0 W/m2
16:24 29.9 °F 28.1 °F 29.79 in NNW 0.5 mph 9 mph 93% 0.00 in 0 W/m2
16:29 29.9 °F 28.1 °F 29.79 in NNW 1.4 mph 9 mph 93% 0.00 in 0 W/m2
16:34 30 °F 28.2 °F 29.79 in NNW 1 mph 9 mph 93% 0.00 in 0 W/m2
16:39 30 °F 28.2 °F 29.79 in NNW 1.8 mph 8 mph 93% 0.00 in 0 W/m2
16:44 30.1 °F 28.3 °F 29.79 in NNW 2.1 mph 9 mph 93% 0.00 in 0 W/m2
16:49 30.1 °F 28.3 °F 29.80 in NNW 2 mph 9 mph 93% 0.00 in 0 W/m2
16:54 30.2 °F 28.4 °F 29.80 in NNW 1.4 mph 9 mph 93% 0.00 in 0 W/m2
16:59 30.3 °F 28.5 °F 29.80 in North 1.2 mph 9 mph 93% 0.00 in 0 W/m2
17:04 30.3 °F 28.6 °F 29.80 in North 0.7 mph 9 mph 93% 0.00 in 0 W/m2
17:09 30.4 °F 28.6 °F 29.80 in NW 0.9 mph 6 mph 93% 0.00 in 0 W/m2
17:14 30.5 °F 28.7 °F 29.80 in NNW 1.3 mph 6 mph 93% 0.00 in 0 W/m2
17:19 30.5 °F 28.8 °F 29.80 in NNW 1.3 mph 6 mph 93% 0.00 in 0 W/m2
17:24 30.6 °F 28.8 °F 29.80 in North 1.3 mph 6 mph 93% 0.00 in 0 W/m2
17:29 30.7 °F 28.9 °F 29.80 in NNW 0.3 mph 6 mph 93% 0.00 in 0 W/m2
17:34 30.7 °F 28.9 °F 29.80 in NNW 0.4 mph 6 mph 93% 0.00 in 0 W/m2
17:39 30.7 °F 28.9 °F 29.80 in NNW 0.5 mph 4 mph 93% 0.00 in 0 W/m2
17:44 30.8 °F 29 °F 29.79 in North 0.3 mph 4 mph 93% 0.00 in 0 W/m2
17:49 30.8 °F 29 °F 29.80 in NNW 0.6 mph 6 mph 93% 0.00 in 0 W/m2
17:54 30.8 °F 29 °F 29.79 in NNW 0.6 mph 7 mph 93% 0.00 in 0 W/m2
17:59 30.8 °F 29 °F 29.80 in NNW 0.5 mph 7 mph 93% 0.00 in 0 W/m2
18:04 30.7 °F 28.9 °F 29.80 in NNW 1 mph 7 mph 93% 0.00 in 0 W/m2
18:09 30.7 °F 28.9 °F 29.80 in NNW 0.4 mph 6 mph 93% 0.00 in 0 W/m2
18:14 30.6 °F 28.8 °F 29.80 in NNW 1 mph 6 mph 93% 0.00 in 0 W/m2
18:19 30.6 °F 28.8 °F 29.79 in North 0.1 mph 6 mph 93% 0.00 in 0 W/m2
18:24 30.5 °F 28.7 °F 29.80 in NNW 0.8 mph 6 mph 93% 0.00 in 0 W/m2
18:29 30.5 °F 28.7 °F 29.80 in NNW 0.2 mph 6 mph 92.9% 0.00 in 0 W/m2
18:34 30.4 °F 28.3 °F 29.80 in NNW 0.3 mph 6 mph 92% 0.00 in 0 W/m2
18:39 30.2 °F 28.2 °F 29.80 in Calm   4 mph 92% 0.00 in 0 W/m2
18:44 30.1 °F 28.1 °F 29.81 in Calm   4 mph 92% 0.00 in 0 W/m2
18:49 29.9 °F 27.9 °F 29.81 in Calm   4 mph 92% 0.00 in 0 W/m2
18:54 29.8 °F 27.8 °F 29.80 in Calm   4 mph 92% 0.00 in 0 W/m2
18:59 29.6 °F 27.6 °F 29.80 in Calm   4 mph 92% 0.00 in 0 W/m2
19:04 29.4 °F 27.4 °F 29.81 in Calm   4 mph 92% 0.00 in 0 W/m2
19:09 29.3 °F 27.3 °F 29.81 in NNW 0.1 mph 2 mph 92% 0.00 in 0 W/m2
19:14 29.3 °F 27.3 °F 29.81 in NNW 0.4 mph 3 mph 92% 0.00 in 0 W/m2
19:19 29.3 °F 27.3 °F 29.82 in NNW 0.1 mph 3 mph 92% 0.00 in 0 W/m2
19:24 29.4 °F 27.3 °F 29.83 in Calm   3 mph 92% 0.00 in 0 W/m2
19:29 29.5 °F 27.6 °F 29.83 in NNW 0.1 mph 3 mph 92.6% 0.00 in 0 W/m2
19:34 29.6 °F 27.8 °F 29.84 in Calm   3 mph 93% 0.00 in 0 W/m2
19:39 29.6 °F 27.9 °F 29.84 in NNW 0.4 mph 3 mph 93% 0.00 in 0 W/m2
19:44 29.7 °F 28 °F 29.84 in NW 1.9 mph 6 mph 93% 0.00 in 0 W/m2
19:49 30 °F 28.3 °F 29.84 in WNW 4.3 mph 9 mph 93% 0.00 in 0 W/m2
19:50 30.3 °F 28.5 °F 29.84 in NW 4 mph 9 mph 93% 0.00 in 0 W/m2
20:04 31 °F 29.2 °F 29.84 in NNW 1.2 mph 3 mph 93% 0.00 in 0 W/m2
20:09 31.1 °F 29.3 °F 29.85 in NW 2.3 mph 8 mph 92.9% 0.00 in 0 W/m2
20:14 31.2 °F 29.1 °F 29.85 in WNW 3.9 mph 13 mph 92% 0.00 in 0 W/m2
20:19 31.3 °F 29.2 °F 29.85 in WNW 3.9 mph 13 mph 92% 0.00 in 0 W/m2
20:24 31.4 °F 29.2 °F 29.85 in WNW 5.9 mph 13 mph 91.5% 0.00 in 0 W/m2
20:29 31.4 °F 29.1 °F 29.86 in NW 3.4 mph 13 mph 91% 0.00 in 0 W/m2
20:34 31.4 °F 28.9 °F 29.87 in WNW 4 mph 13 mph 90.4% 0.00 in 0 W/m2
20:39 31.4 °F 28.8 °F 29.87 in NW 3.4 mph 10 mph 90% 0.00 in 0 W/m2
20:44 31.4 °F 28.7 °F 29.87 in NW 4.2 mph 11 mph 89.7% 0.00 in 0 W/m2
20:49 31.3 °F 28.4 °F 29.88 in NW 2.4 mph 11 mph 88.9% 0.00 in 0 W/m2
20:54 31.2 °F 28.1 °F 29.89 in NW 3.9 mph 11 mph 88.2% 0.00 in 0 W/m2
20:59 31.2 °F 28 °F 29.89 in NW 2 mph 11 mph 87.8% 0.00 in 0 W/m2
21:04 31.1 °F 27.7 °F 29.90 in NW 2.5 mph 11 mph 87.2% 0.00 in 0 W/m2
21:09 30.9 °F 27.8 °F 29.90 in WNW 2.1 mph 11 mph 88.1% 0.00 in 0 W/m2
21:14 30.8 °F 26.9 °F 29.90 in NW 5.2 mph 11 mph 85.4% 0.00 in 0 W/m2
21:19 30.6 °F 26.4 °F 29.91 in NW 5.3 mph 11 mph 84.2% 0.00 in 0 W/m2
21:24 30.5 °F 26.2 °F 29.91 in NW 5.4 mph 11 mph 84% 0.00 in 0 W/m2
21:29 30.3 °F 25.9 °F 29.92 in WNW 5.3 mph 15 mph 83.3% 0.00 in 0 W/m2
21:34 30.1 °F 25.6 °F 29.92 in NW 9.4 mph 18 mph 83% 0.00 in 0 W/m2
21:39 29.8 °F 25.1 °F 29.93 in NW 7.1 mph 18 mph 82.2% 0.00 in 0 W/m2
21:44 29.6 °F 24.7 °F 29.93 in NW 5.3 mph 18 mph 81.7% 0.00 in 0 W/m2
21:49 29.3 °F 24.1 °F 29.93 in NW 6 mph 18 mph 80.9% 0.00 in 0 W/m2
21:54 29 °F 23.6 °F 29.94 in NW 5.1 mph 18 mph 80% 0.00 in 0 W/m2
21:59 28.8 °F 23.2 °F 29.94 in WNW 5.3 mph 18 mph 79.3% 0.00 in 0 W/m2
22:04 28.6 °F 23 °F 29.95 in NW 6.9 mph 18 mph 79% 0.00 in 0 W/m2
22:09 28.5 °F 22.9 °F 29.95 in NW 3.5 mph 14 mph 79% 0.00 in 0 W/m2
22:14 28.4 °F 22.7 °F 29.95 in WNW 4.9 mph 14 mph 79% 0.00 in 0 W/m2
22:19 28.2 °F 22.1 °F 29.96 in NW 8.4 mph 18 mph 77.6% 0.00 in 0 W/m2
22:24 28 °F 21.8 °F 29.97 in NW 5.3 mph 18 mph 77% 0.00 in 0 W/m2
22:29 27.9 °F 21.4 °F 29.97 in NW 5.6 mph 18 mph 76.3% 0.00 in 0 W/m2
22:34 27.7 °F 21.1 °F 29.97 in NW 4.5 mph 18 mph 75.8% 0.00 in 0 W/m2
22:39 27.5 °F 20.7 °F 29.97 in NW 5.5 mph 13 mph 75% 0.00 in 0 W/m2
22:44 27.4 °F 20.2 °F 29.98 in NW 7 mph 15 mph 74.1% 0.00 in 0 W/m2
22:49 27.2 °F 20 °F 29.98 in NW 4.1 mph 15 mph 74% 0.00 in 0 W/m2
22:54 27 °F 19.9 °F 29.98 in NW 3.1 mph 15 mph 74% 0.00 in 0 W/m2
22:59 26.9 °F 19.4 °F 29.99 in NNW 3.7 mph 15 mph 73.1% 0.00 in 0 W/m2
23:04 26.6 °F 19.1 °F 29.99 in NW 3.8 mph 6 mph 73% 0.00 in 0 W/m2
23:09 26.4 °F 18.7 °F 30.00 in NNW 4.3 mph 11 mph 72.1% 0.00 in 0 W/m2
23:14 26.2 °F 18.2 °F 30.01 in NW 5.4 mph 14 mph 71.3% 0.00 in 0 W/m2
23:19 26 °F 17.6 °F 30.01 in NW 5.7 mph 14 mph 70% 0.00 in 0 W/m2
23:24 25.9 °F 17.2 °F 30.01 in NW 4.4 mph 15 mph 69.2% 0.00 in 0 W/m2
23:29 25.7 °F 16.9 °F 30.01 in NW 3.4 mph 15 mph 69% 0.00 in 0 W/m2
23:34 25.5 °F 16.5 °F 30.02 in NW 7 mph 16 mph 68.1% 0.00 in 0 W/m2
23:39 25.4 °F 16.3 °F 30.02 in NW 4.8 mph 16 mph 68% 0.00 in 0 W/m2
23:44 25.3 °F 16.2 °F 30.02 in NW 3.8 mph 16 mph 68% 0.00 in 0 W/m2
23:49 25.1 °F 16.1 °F 30.03 in NNW 3.2 mph 16 mph 68% 0.00 in 0 W/m2
23:54 25 °F 16.1 °F 30.03 in NW 2 mph 16 mph 68.5% 0.00 in 0 W/m2
23:59 24.8 °F 15.8 °F 30.03 in NNW 2.5 mph 16 mph 68.1% 0.00 in 0 W/m2
Hartford County Weather
Compliments of Weather Underground - 2 mb